createdAt,value
2022-12-15T00:00:28.971Z,141.47
2022-12-15T00:03:14.996Z,133.10
2022-12-15T00:06:00.424Z,124.03
2022-12-15T00:08:46.202Z,119.53
2022-12-15T00:11:31.628Z,120.30
2022-12-15T00:14:17.281Z,119.83
2022-12-15T00:17:04.191Z,136.63
2022-12-15T00:19:49.700Z,134.17
2022-12-15T00:22:35.425Z,119.30
2022-12-15T00:25:21.211Z,121.57
2022-12-15T00:28:06.722Z,126.07
2022-12-15T00:30:53.259Z,127.70
2022-12-15T00:33:43.257Z,137.10
2022-12-15T00:36:28.929Z,129.20
2022-12-15T00:39:02.024Z,127.97
2022-12-15T00:41:32.105Z,135.03
2022-12-15T00:44:00.367Z,125.70
2022-12-15T00:46:46.194Z,129.13
2022-12-15T00:49:29.800Z,122.10
2022-12-15T00:52:15.850Z,122.70
2022-12-15T00:55:01.804Z,121.37
2022-12-15T00:57:47.185Z,123.37
2022-12-15T01:00:33.576Z,116.03
2022-12-15T01:03:19.320Z,116.07
2022-12-15T01:06:06.345Z,124.07
2022-12-15T01:08:51.860Z,118.13
2022-12-15T01:14:17.402Z,127.67
2022-12-15T01:17:02.868Z,125.67
2022-12-15T01:19:48.515Z,120.33
2022-12-15T01:22:19.265Z,120.20
2022-12-15T01:24:47.628Z,128.37
2022-12-15T01:27:15.901Z,133.57
2022-12-15T01:29:44.625Z,139.90
2022-12-15T01:32:14.138Z,123.17
2022-12-15T01:34:42.486Z,134.03
2022-12-15T01:37:10.788Z,128.90
2022-12-15T01:39:57.675Z,119.40
2022-12-15T01:42:26.036Z,122.50
2022-12-15T01:44:55.212Z,122.93
2022-12-15T01:47:26.623Z,128.43
2022-12-15T01:49:56.133Z,126.07
2022-12-15T01:52:24.488Z,110.37
2022-12-15T01:54:57.921Z,129.93
2022-12-15T01:57:29.735Z,132.77
2022-12-15T02:00:02.104Z,124.00
2022-12-15T02:02:36.934Z,129.07
2022-12-15T02:05:10.032Z,114.13
2022-12-15T02:07:39.429Z,141.27
2022-12-15T02:10:12.325Z,132.40
2022-12-15T02:12:45.410Z,130.83
2022-12-15T02:15:21.831Z,134.97
2022-12-15T02:17:58.688Z,131.63
2022-12-15T02:20:47.552Z,129.90
2022-12-15T02:23:59.072Z,127.70
2022-12-15T02:27:12.103Z,113.20
2022-12-15T02:30:26.567Z,116.50
2022-12-15T02:33:21.974Z,120.47
2022-12-15T02:35:57.993Z,129.70
2022-12-15T02:38:31.582Z,118.40
2022-12-15T02:41:01.180Z,112.57
2022-12-15T02:43:31.569Z,122.97
2022-12-15T02:46:16.764Z,134.73
2022-12-15T02:48:59.677Z,133.73
2022-12-15T02:51:41.468Z,137.90
2022-12-15T02:54:43.730Z,131.77
2022-12-15T02:57:18.470Z,122.27
2022-12-15T02:59:55.684Z,128.83
2022-12-15T03:02:26.666Z,137.00
2022-12-15T03:04:57.108Z,141.73
2022-12-15T03:07:27.897Z,159.57
2022-12-15T03:09:57.663Z,137.77
2022-12-15T03:12:25.943Z,131.17
2022-12-15T03:14:54.352Z,135.20
2022-12-15T03:17:22.814Z,133.50
2022-12-15T03:19:51.221Z,137.53
2022-12-15T03:22:20.980Z,132.20
2022-12-15T03:24:49.499Z,129.87
2022-12-15T03:27:17.891Z,132.77
2022-12-15T03:29:46.263Z,139.33
2022-12-15T03:32:14.744Z,131.07
2022-12-15T03:34:43.234Z,132.87
2022-12-15T03:37:11.538Z,140.57
2022-12-15T03:39:41.354Z,134.97
2022-12-15T03:42:09.769Z,137.20
2022-12-15T03:44:38.189Z,139.87
2022-12-15T03:47:07.557Z,130.90
2022-12-15T03:49:35.908Z,125.27
2022-12-15T03:52:04.184Z,139.73
2022-12-15T03:54:32.560Z,128.20
2022-12-15T03:57:02.217Z,124.87
2022-12-15T03:59:31.544Z,147.77
2022-12-15T04:01:59.926Z,139.57
2022-12-15T04:04:28.617Z,155.47
2022-12-15T04:06:57.141Z,147.00
2022-12-15T04:09:25.618Z,151.60
2022-12-15T04:11:54.013Z,160.70
2022-12-15T04:14:23.887Z,159.70
2022-12-15T04:16:52.551Z,160.97
2022-12-15T04:19:38.368Z,168.50
2022-12-15T04:22:06.792Z,156.50
2022-12-15T04:24:52.650Z,158.00
2022-12-15T04:27:38.734Z,153.17
2022-12-15T04:30:27.286Z,148.90
2022-12-15T04:33:13.696Z,153.73
2022-12-15T04:36:00.609Z,141.93
2022-12-15T04:38:50.590Z,143.40
2022-12-15T04:41:39.727Z,156.50
2022-12-15T04:44:26.365Z,169.30
2022-12-15T04:47:13.988Z,160.03
2022-12-15T04:50:00.586Z,149.83
2022-12-15T04:52:47.602Z,148.97
2022-12-15T04:55:34.660Z,154.80
2022-12-15T04:58:24.709Z,146.17
2022-12-15T05:01:11.575Z,144.83
2022-12-15T05:03:58.767Z,146.23
2022-12-15T05:06:44.621Z,154.77
2022-12-15T05:09:30.532Z,149.37
2022-12-15T05:12:16.614Z,154.27
2022-12-15T05:15:01.994Z,136.53
2022-12-15T05:17:48.548Z,157.83
2022-12-15T05:20:35.717Z,170.80
2022-12-15T05:23:21.244Z,164.50
2022-12-15T05:26:07.045Z,166.73
2022-12-15T05:28:52.865Z,168.30
2022-12-15T05:31:38.756Z,175.37
2022-12-15T05:34:07.241Z,167.97
2022-12-15T05:36:36.883Z,178.47
2022-12-15T05:39:05.446Z,174.23
2022-12-15T05:41:33.735Z,179.97
2022-12-15T05:44:02.463Z,189.57
2022-12-15T05:46:30.890Z,201.07
2022-12-15T05:48:59.296Z,190.50
2022-12-15T05:51:27.693Z,187.30
2022-12-15T05:53:57.364Z,181.30
2022-12-15T05:56:27.140Z,169.47
2022-12-15T05:58:56.472Z,169.60
2022-12-15T06:01:28.915Z,171.97
2022-12-15T06:03:57.347Z,163.13
2022-12-15T06:06:26.290Z,165.10
2022-12-15T06:08:56.089Z,171.03
2022-12-15T06:11:24.693Z,172.00
2022-12-15T06:13:54.191Z,170.37
2022-12-15T06:16:24.416Z,163.03
2022-12-15T06:18:55.731Z,163.83
2022-12-15T06:21:25.877Z,162.80
2022-12-15T06:23:54.713Z,163.13
2022-12-15T06:26:26.581Z,159.10
2022-12-15T06:28:57.282Z,143.77
2022-12-15T06:31:26.977Z,156.77
2022-12-15T06:34:01.681Z,159.63
2022-12-15T06:36:31.758Z,171.10
2022-12-15T06:39:01.058Z,158.77
2022-12-15T06:41:31.131Z,142.37
2022-12-15T06:44:00.018Z,153.50
2022-12-15T06:46:29.967Z,147.33
2022-12-15T06:48:59.231Z,163.90
2022-12-15T06:51:28.946Z,160.50
2022-12-15T06:53:57.236Z,171.03
2022-12-15T06:56:32.501Z,162.13
2022-12-15T06:59:05.230Z,157.03
2022-12-15T07:01:33.904Z,167.03
2022-12-15T07:04:04.524Z,157.27
2022-12-15T07:06:36.549Z,161.97
2022-12-15T07:09:08.359Z,159.33
2022-12-15T07:11:37.164Z,164.53
2022-12-15T07:14:06.825Z,155.23
2022-12-15T07:16:35.222Z,155.77
2022-12-15T07:19:06.556Z,161.13
2022-12-15T07:21:34.749Z,164.00
2022-12-15T07:24:03.608Z,170.63
2022-12-15T07:26:32.261Z,164.53
2022-12-15T07:29:00.631Z,167.37
2022-12-15T07:31:31.995Z,165.03
2022-12-15T07:34:00.690Z,162.00
2022-12-15T07:36:28.991Z,165.30
2022-12-15T07:39:01.909Z,175.27
2022-12-15T07:41:30.359Z,187.07
2022-12-15T07:43:59.251Z,176.83
2022-12-15T07:46:29.225Z,170.10
2022-12-15T07:48:57.555Z,179.80
2022-12-15T07:51:26.053Z,184.60
2022-12-15T07:53:54.462Z,161.00
2022-12-15T07:56:22.786Z,155.90
2022-12-15T07:58:51.901Z,151.27
2022-12-15T08:01:20.387Z,172.17
2022-12-15T08:03:51.296Z,169.97
2022-12-15T08:06:19.608Z,166.90
2022-12-15T08:08:50.582Z,165.90
2022-12-15T08:11:20.672Z,176.60
2022-12-15T08:14:02.693Z,164.80
2022-12-15T08:16:32.143Z,178.43
2022-12-15T08:19:01.883Z,178.47
2022-12-15T08:21:31.369Z,182.27
2022-12-15T08:24:00.905Z,174.20
2022-12-15T08:26:30.889Z,177.37
2022-12-15T08:29:32.075Z,178.27
2022-12-15T08:31:52.524Z,177.60
2022-12-15T08:34:23.921Z,179.53
2022-12-15T08:36:52.406Z,193.67
2022-12-15T08:39:21.666Z,203.10
2022-12-15T08:41:50.744Z,182.60
2022-12-15T08:44:19.118Z,189.17
2022-12-15T08:46:47.357Z,189.17
2022-12-15T08:49:21.402Z,197.60
2022-12-15T08:51:52.508Z,207.43
2022-12-15T08:54:21.732Z,180.00
2022-12-15T08:56:50.289Z,199.07
2022-12-15T08:59:19.142Z,210.00
2022-12-15T09:01:47.863Z,211.53
2022-12-15T09:04:16.664Z,210.93
2022-12-15T09:06:46.782Z,208.23
2022-12-15T09:09:20.936Z,201.00
2022-12-15T09:11:49.557Z,212.60
2022-12-15T09:14:21.582Z,221.30
2022-12-15T09:16:54.229Z,187.13
2022-12-15T09:19:22.667Z,214.83
2022-12-15T09:21:50.883Z,204.47
2022-12-15T09:24:29.186Z,212.60
2022-12-15T09:27:04.234Z,210.37
2022-12-15T09:29:32.854Z,200.73
2022-12-15T09:32:01.275Z,209.83
2022-12-15T09:34:30.288Z,213.43
2022-12-15T09:36:58.650Z,197.10
2022-12-15T09:39:28.481Z,196.37
2022-12-15T09:42:00.924Z,189.43
2022-12-15T09:44:31.486Z,190.30
2022-12-15T09:47:10.034Z,188.03
2022-12-15T09:49:51.801Z,177.83
2022-12-15T09:52:23.362Z,187.20
2022-12-15T09:54:53.310Z,180.27
2022-12-15T09:57:32.569Z,180.20
2022-12-15T10:00:12.753Z,173.57
2022-12-15T10:03:25.955Z,173.00
2022-12-15T10:06:16.189Z,164.13
2022-12-15T10:08:50.507Z,161.80
2022-12-15T10:11:28.446Z,157.60
2022-12-15T10:14:06.334Z,160.03
2022-12-15T10:16:41.257Z,157.07
2022-12-15T10:19:14.720Z,159.83
2022-12-15T10:21:43.650Z,155.00
2022-12-15T10:24:44.486Z,152.73
2022-12-15T10:27:23.804Z,147.27
2022-12-15T10:30:01.605Z,135.13
2022-12-15T10:32:42.635Z,138.70
2022-12-15T10:35:16.549Z,135.80
2022-12-15T10:37:45.122Z,135.43
2022-12-15T10:40:18.999Z,133.47
2022-12-15T10:42:50.927Z,137.60
2022-12-15T10:45:39.860Z,128.53
2022-12-15T10:48:19.029Z,132.43
2022-12-15T10:50:48.435Z,135.00
2022-12-15T10:53:39.643Z,123.60
2022-12-15T10:56:09.575Z,122.00
2022-12-15T10:58:50.257Z,126.60
2022-12-15T11:01:20.791Z,121.40
2022-12-15T11:03:52.849Z,129.27
2022-12-15T11:06:23.951Z,121.13
2022-12-15T11:08:54.427Z,121.63
2022-12-15T11:11:50.410Z,125.93
2022-12-15T11:14:24.124Z,113.00
2022-12-15T11:16:56.415Z,117.87
2022-12-15T11:19:40.378Z,120.87
2022-12-15T11:22:18.332Z,103.67
2022-12-15T11:24:51.908Z,110.40
2022-12-15T11:27:27.536Z,105.87
2022-12-15T11:30:03.177Z,104.43
2022-12-15T11:32:36.037Z,109.67
2022-12-15T11:35:04.904Z,108.77
2022-12-15T11:37:39.402Z,105.87
2022-12-15T11:40:39.124Z,98.03
2022-12-15T11:43:32.925Z,92.33
2022-12-15T11:46:23.885Z,84.80
2022-12-15T11:49:28.710Z,78.40
2022-12-15T11:52:02.354Z,81.97
2022-12-15T11:54:41.593Z,79.00
2022-12-15T11:57:39.264Z,79.47
2022-12-15T12:00:11.850Z,73.10
2022-12-15T12:03:09.335Z,69.60
2022-12-15T12:05:53.101Z,68.50
2022-12-15T12:08:47.072Z,64.87
2022-12-15T12:11:22.362Z,61.57
2022-12-15T12:14:11.472Z,56.37
2022-12-15T12:16:50.464Z,56.83
2022-12-15T12:19:24.839Z,53.57
2022-12-15T12:22:21.431Z,49.67
2022-12-15T12:24:53.893Z,45.50
2022-12-15T12:27:31.987Z,48.43
2022-12-15T12:30:05.552Z,45.33
2022-12-15T12:32:45.779Z,47.00
2022-12-15T12:35:31.825Z,45.73
2022-12-15T12:38:04.273Z,51.03
2022-12-15T12:40:49.765Z,40.70
2022-12-15T12:43:41.552Z,42.73
2022-12-15T12:46:22.584Z,45.93
2022-12-15T12:48:56.225Z,45.77
2022-12-15T12:52:08.220Z,44.07
2022-12-15T12:54:48.631Z,43.37
2022-12-15T12:57:55.902Z,42.37
2022-12-15T13:01:28.912Z,49.67
2022-12-15T13:04:12.050Z,54.57
2022-12-15T13:07:17.173Z,42.97
2022-12-15T13:10:02.110Z,40.13
2022-12-15T13:12:51.904Z,41.60
2022-12-15T13:15:37.447Z,40.07
2022-12-15T13:20:42.471Z,40.57
2022-12-15T13:23:44.165Z,38.43
2022-12-15T13:29:25.804Z,40.17
2022-12-15T13:36:05.024Z,46.13
2022-12-15T13:43:35.892Z,43.83
2022-12-15T13:46:24.705Z,37.43
2022-12-15T13:48:56.834Z,41.87
2022-12-15T13:51:51.627Z,41.07
2022-12-15T13:54:24.621Z,40.80
2022-12-15T13:57:08.255Z,46.67
2022-12-15T13:59:43.884Z,44.23
2022-12-15T14:02:28.569Z,42.13
2022-12-15T14:08:23.278Z,41.47
2022-12-15T14:11:51.820Z,44.67
2022-12-15T14:14:20.627Z,41.83
2022-12-15T14:16:54.241Z,41.03
2022-12-15T14:19:22.633Z,40.60
2022-12-15T14:21:52.881Z,38.83
2022-12-15T14:24:42.261Z,41.87
2022-12-15T14:27:35.998Z,41.47
2022-12-15T14:30:22.534Z,38.53
2022-12-15T14:35:49.484Z,41.13
2022-12-15T14:38:23.597Z,46.50
2022-12-15T14:40:56.557Z,46.67
2022-12-15T14:43:28.676Z,44.53
2022-12-15T14:46:07.764Z,44.97
2022-12-15T14:48:42.075Z,45.63
2022-12-15T14:51:13.704Z,50.33
2022-12-15T14:53:44.737Z,47.63
2022-12-15T14:59:20.844Z,44.87
2022-12-15T15:01:58.565Z,40.20
2022-12-15T15:03:14.541Z,40.87
2022-12-15T15:04:32.643Z,43.03
2022-12-15T15:07:03.280Z,45.33
2022-12-15T15:09:34.824Z,48.73
2022-12-15T15:12:05.729Z,56.57
2022-12-15T15:14:38.763Z,59.60
2022-12-15T15:17:17.001Z,57.90
2022-12-15T15:19:51.842Z,74.33
2022-12-15T15:22:32.149Z,68.77
2022-12-15T15:25:00.653Z,74.60
2022-12-15T15:27:36.689Z,77.03
2022-12-15T15:30:21.726Z,84.67
2022-12-15T15:32:58.278Z,76.53
2022-12-15T15:35:32.987Z,81.30
2022-12-15T15:38:05.087Z,87.80
2022-12-15T15:40:33.568Z,98.10
2022-12-15T15:43:01.935Z,96.83
2022-12-15T15:45:31.180Z,93.30
2022-12-15T15:47:59.647Z,100.37
2022-12-15T15:50:30.948Z,105.40
2022-12-15T15:53:00.078Z,102.43
2022-12-15T15:55:37.834Z,105.20
2022-12-15T15:58:12.413Z,112.20
2022-12-15T16:00:41.368Z,112.50
2022-12-15T16:03:11.007Z,113.63
2022-12-15T16:05:41.879Z,111.60
2022-12-15T16:08:16.655Z,122.10
2022-12-15T16:10:48.418Z,130.10
2022-12-15T16:13:25.520Z,130.70
2022-12-15T16:15:54.654Z,133.90
2022-12-15T16:18:23.374Z,122.77
2022-12-15T16:20:53.664Z,182.20
2022-12-15T16:23:25.050Z,155.43
2022-12-15T16:25:55.482Z,143.63
2022-12-15T16:28:25.715Z,158.70
2022-12-15T16:30:54.368Z,159.73
2022-12-15T16:33:23.138Z,160.27
2022-12-15T16:35:53.221Z,175.87
2022-12-15T16:38:26.242Z,162.20
2022-12-15T16:40:55.467Z,177.70
2022-12-15T16:43:34.529Z,177.73
2022-12-15T16:46:06.024Z,178.57
2022-12-15T16:48:34.995Z,173.73
2022-12-15T16:51:08.121Z,189.20
2022-12-15T16:53:40.399Z,185.00
2022-12-15T16:56:14.313Z,189.50
2022-12-15T16:58:48.494Z,179.10
2022-12-15T17:01:17.305Z,185.07
2022-12-15T17:03:45.839Z,191.80
2022-12-15T17:06:17.615Z,193.20
2022-12-15T17:08:50.956Z,188.97
2022-12-15T17:11:21.522Z,188.50
2022-12-15T17:13:51.477Z,197.63
2022-12-15T17:16:21.328Z,207.10
2022-12-15T17:18:50.243Z,205.57
2022-12-15T17:21:22.243Z,225.35
2022-12-15T17:23:53.196Z,212.50
2022-12-15T17:26:29.111Z,211.00
2022-12-15T17:29:02.371Z,211.63
2022-12-15T17:31:35.758Z,217.50
2022-12-15T17:34:24.016Z,226.37
2022-12-15T17:36:53.953Z,225.63
2022-12-15T17:39:23.532Z,230.60
2022-12-15T17:42:01.198Z,234.03
2022-12-15T17:44:35.606Z,240.03
2022-12-15T17:47:06.638Z,253.07
2022-12-15T17:49:37.805Z,250.30
2022-12-15T17:52:16.913Z,246.83
2022-12-15T17:54:45.499Z,255.10
2022-12-15T17:57:14.045Z,252.07
2022-12-15T17:59:42.869Z,264.70
2022-12-15T18:02:13.707Z,254.30
2022-12-15T18:04:42.585Z,273.17
2022-12-15T18:07:18.168Z,247.20
2022-12-15T18:09:46.761Z,248.87
2022-12-15T18:12:19.935Z,258.90
2022-12-15T18:14:48.325Z,252.33
2022-12-15T18:17:16.817Z,257.00
2022-12-15T18:19:45.244Z,256.63
2022-12-15T18:22:18.562Z,269.87
2022-12-15T18:24:47.418Z,271.67
2022-12-15T18:27:21.942Z,268.47
2022-12-15T18:29:51.353Z,255.63
2022-12-15T18:32:21.557Z,258.30
2022-12-15T18:34:50.569Z,254.47
2022-12-15T18:37:22.976Z,254.53
2022-12-15T18:39:52.390Z,258.03
2022-12-15T18:42:23.257Z,273.47
2022-12-15T18:44:53.625Z,285.53
2022-12-15T18:47:25.124Z,273.77
2022-12-15T18:49:53.516Z,272.70
2022-12-15T18:52:30.076Z,278.37
2022-12-15T18:55:01.377Z,287.13
2022-12-15T18:57:31.492Z,280.67
2022-12-15T19:00:00.938Z,274.33
2022-12-15T19:02:29.323Z,275.07
2022-12-15T19:04:57.700Z,276.33
2022-12-15T19:07:27.659Z,275.53
2022-12-15T19:09:56.553Z,277.93
2022-12-15T19:12:25.273Z,291.13
2022-12-15T19:14:55.303Z,295.17
2022-12-15T19:17:42.703Z,283.10
2022-12-15T19:20:34.905Z,269.70
2022-12-15T19:23:05.844Z,271.50
2022-12-15T19:25:35.051Z,274.90
2022-12-15T19:28:03.358Z,275.00
2022-12-15T19:30:40.242Z,267.70
2022-12-15T19:33:09.824Z,274.20
2022-12-15T19:35:39.240Z,291.20
2022-12-15T19:38:09.529Z,273.23
2022-12-15T19:40:38.626Z,271.70
2022-12-15T19:43:07.311Z,285.67
2022-12-15T19:45:35.642Z,279.60
2022-12-15T19:48:04.668Z,273.70
2022-12-15T19:50:37.352Z,268.53
2022-12-15T19:53:18.405Z,282.97
2022-12-15T19:55:46.719Z,296.63
2022-12-15T19:58:27.536Z,302.10
2022-12-15T20:00:57.713Z,309.80
2022-12-15T20:03:27.148Z,315.17
2022-12-15T20:05:57.430Z,309.33
2022-12-15T20:08:31.413Z,306.47
2022-12-15T20:10:59.791Z,312.53
2022-12-15T20:13:28.219Z,302.00
2022-12-15T20:15:56.660Z,290.83
2022-12-15T20:18:24.969Z,295.10
2022-12-15T20:20:53.825Z,288.53
2022-12-15T20:23:27.621Z,285.50
2022-12-15T20:25:58.915Z,284.43
2022-12-15T20:28:29.341Z,283.00
2022-12-15T20:30:58.750Z,277.90
2022-12-15T20:33:27.075Z,277.87
2022-12-15T20:35:55.374Z,267.53
2022-12-15T20:38:32.892Z,248.23
2022-12-15T20:41:03.800Z,252.20
2022-12-15T20:43:35.263Z,257.17
2022-12-15T20:46:07.684Z,255.73
2022-12-15T20:48:37.665Z,256.07
2022-12-15T20:51:09.907Z,243.90
2022-12-15T20:53:39.015Z,250.07
2022-12-15T20:56:09.215Z,234.73
2022-12-15T20:58:40.148Z,256.30
2022-12-15T21:01:19.396Z,235.87
2022-12-15T21:03:48.936Z,247.67
2022-12-15T21:06:17.986Z,254.67
2022-12-15T21:08:47.729Z,252.23
2022-12-15T21:11:20.475Z,264.53
2022-12-15T21:13:49.758Z,271.83
2022-12-15T21:16:20.633Z,266.20
2022-12-15T21:19:18.746Z,255.23
2022-12-15T21:21:40.919Z,287.50
2022-12-15T21:24:16.312Z,289.03
2022-12-15T21:26:46.887Z,292.83
2022-12-15T21:29:17.015Z,279.70
2022-12-15T21:31:46.115Z,292.63
2022-12-15T21:34:18.227Z,273.30
2022-12-15T21:36:51.833Z,278.47
2022-12-15T21:39:25.519Z,272.73
2022-12-15T21:41:55.276Z,259.17
2022-12-15T21:44:26.070Z,258.20
2022-12-15T21:46:54.654Z,256.17
2022-12-15T21:49:22.265Z,260.20
2022-12-15T21:51:55.131Z,262.67
2022-12-15T21:54:30.764Z,265.27
2022-12-15T21:57:02.822Z,276.90
2022-12-15T21:59:32.935Z,268.03
2022-12-15T22:02:02.551Z,272.27
2022-12-15T22:04:32.959Z,258.17
2022-12-15T22:07:01.505Z,265.10
2022-12-15T22:09:29.899Z,257.73
2022-12-15T22:11:58.604Z,264.33
2022-12-15T22:14:29.972Z,271.30
2022-12-15T22:16:59.439Z,271.37
2022-12-15T22:19:28.007Z,272.77
2022-12-15T22:21:56.210Z,276.90
2022-12-15T22:24:24.508Z,266.17
2022-12-15T22:26:52.896Z,269.77
2022-12-15T22:29:23.414Z,289.80
2022-12-15T22:31:53.207Z,225.47
2022-12-15T22:34:25.627Z,255.60
2022-12-15T22:36:54.828Z,255.83
2022-12-15T22:39:24.546Z,250.20
2022-12-15T22:41:53.698Z,265.23
2022-12-15T22:44:25.040Z,243.37
2022-12-15T22:46:57.457Z,249.97
2022-12-15T22:49:31.363Z,232.47
2022-12-15T22:51:59.538Z,245.03
2022-12-15T22:54:29.369Z,228.87
2022-12-15T22:57:01.952Z,222.77
2022-12-15T22:59:34.723Z,223.40
2022-12-15T23:02:05.061Z,219.30
2022-12-15T23:04:33.751Z,228.90
2022-12-15T23:07:04.518Z,230.03
2022-12-15T23:09:32.798Z,230.43
2022-12-15T23:12:00.083Z,236.13
2022-12-15T23:14:42.687Z,234.63
2022-12-15T23:17:12.810Z,230.63
2022-12-15T23:19:45.009Z,231.40
2022-12-15T23:22:13.438Z,222.70
2022-12-15T23:24:41.848Z,234.90
2022-12-15T23:27:12.138Z,221.80
2022-12-15T23:29:40.485Z,224.13
2022-12-15T23:32:08.732Z,220.00
2022-12-15T23:34:38.301Z,224.70
2022-12-15T23:37:06.635Z,206.93
2022-12-15T23:39:34.883Z,217.43
2022-12-15T23:42:03.090Z,208.33
2022-12-15T23:44:33.399Z,202.17
2022-12-15T23:47:01.705Z,206.37
2022-12-15T23:49:30.022Z,204.60
2022-12-15T23:51:59.739Z,199.17
2022-12-15T23:54:28.337Z,198.97
2022-12-15T23:56:56.622Z,191.80
2022-12-15T23:59:25.004Z,184.23
